Audrey — PD9331 — position and weather

sailwx.info

Track history (hours):
 
Tides and Currents Weather Stations Pressure Air Temp Water Temp Dewpoint Dewpoint Depression Visibility Wind Speed Wind Dir Waves Ship Positions

Audrey

Last reported at 2015-May-27 21:33 UTC. Time now 2015-May-27 22:02 UTC.
Position N 51°16' E 004°23'.

Length 85 m; draft 2.5 m.

Type: Other ship. MMSI: 244660106.

Date/timePositionNaut miles runAvg speedWind from/ knotsBaromVisibWave heightAir tempDewpointWater temp
2015-May-27 21:33N 51°16' E 004°23'0 0.0
2015-May-27 20:33N 51°16' E 004°23'0 0.0
2015-May-27 19:33N 51°16' E 004°23'0 0.0
2015-May-27 18:33N 51°16' E 004°23'1 1.4
2015-May-27 17:33N 51°15' E 004°21'2 2.1
2015-May-27 16:33N 51°16' E 004°18'1 1.1
2015-May-27 15:33N 51°16' E 004°16'2 1.6
2015-May-27 14:33N 51°15' E 004°14'0 0.0
2015-May-27 13:33N 51°15' E 004°14'0 0.0
2015-May-27 12:33N 51°15' E 004°14'0 0.0
2015-May-27 11:33N 51°15' E 004°14'0 0.1
2015-May-27 10:33N 51°15' E 004°14'0 0.1
2015-May-27 09:33N 51°15' E 004°14'0 0.0
2015-May-27 08:33N 51°15' E 004°14'0 0.1
2015-May-27 07:33N 51°15' E 004°14'2 1.6
2015-May-27 06:33N 51°16' E 004°16'0 0.1
2015-May-27 05:33N 51°16' E 004°16'0 0.0
2015-May-27 04:33N 51°16' E 004°16'0 0.0
2015-May-27 03:33N 51°16' E 004°16'0 0.0
2015-May-27 02:33N 51°16' E 004°16'0 0.0
2015-May-27 01:33N 51°16' E 004°16'0 0.0
2015-May-27 00:33N 51°16' E 004°16'0 0.0
2015-May-26 23:33N 51°16' E 004°16'0 0.0
2015-May-26 22:33N 51°16' E 004°16'0 0.0
2015-May-26 21:33N 51°16' E 004°16'0 0.0
2015-May-26 20:33N 51°16' E 004°16'0 0.0
2015-May-26 19:33N 51°16' E 004°16'0 0.0
2015-May-26 18:33N 51°16' E 004°16'0 0.0
2015-May-26 17:33N 51°16' E 004°16'0 0.4
2015-May-26 16:33N 51°16' E 004°17'0 0.5
2015-May-26 15:33N 51°16' E 004°17'6 6.2
2015-May-26 14:33N 51°22' E 004°13'17 3.8
2015-May-26 10:06N 51°38' E 004°14'610.7
2015-May-26 09:30N 51°41' E 004°23'4 3.5
2015-May-26 08:29N 51°42' E 004°29'8 8.1
2015-May-26 07:33N 51°47' E 004°38'7 7.1
2015-May-26 06:33N 51°54' E 004°35'3 3.2
2015-May-26 05:31N 51°55' E 004°30'0 0.0
2015-May-26 04:33N 51°55' E 004°30'0 0.0
2015-May-26 03:33N 51°55' E 004°30'0 0.0
2015-May-26 02:33N 51°55' E 004°30'0 0.0
2015-May-26 01:33N 51°55' E 004°30'0 0.0
2015-May-26 00:33N 51°55' E 004°30'0 0.0
2015-May-25 23:34N 51°55' E 004°30'0 0.0
2015-May-25 22:33N 51°55' E 004°30'0 0.0
2015-May-25 21:33N 51°55' E 004°30'0 0.0
2015-May-25 20:33N 51°55' E 004°30'0 0.0
2015-May-25 19:33N 51°55' E 004°30'0 0.0
2015-May-25 18:33N 51°55' E 004°30'0 0.0
2015-May-25 17:33N 51°55' E 004°30'0 0.0
2015-May-25 16:33N 51°55' E 004°30'0 0.0
2015-May-25 15:33N 51°55' E 004°30'0 0.0
2015-May-25 14:33N 51°55' E 004°30'0 0.0
2015-May-25 13:33N 51°55' E 004°30'0 0.0
2015-May-25 12:33N 51°55' E 004°30'0 0.0
2015-May-25 11:33N 51°55' E 004°30'0 0.0
2015-May-25 10:33N 51°55' E 004°30'0 0.0
2015-May-25 09:33N 51°55' E 004°30'0 0.0
2015-May-25 08:33N 51°55' E 004°30'0 0.0
2015-May-25 07:33N 51°55' E 004°30'0 0.0
2015-May-25 06:33N 51°55' E 004°30'0 0.0
2015-May-25 05:33N 51°55' E 004°30'0 0.0
2015-May-25 04:33N 51°55' E 004°30'0 0.0
2015-May-25 03:33N 51°55' E 004°30'0 0.0
2015-May-25 02:33N 51°55' E 004°30'0 0.0
2015-May-25 01:33N 51°55' E 004°30'0 0.0
2015-May-25 00:33N 51°55' E 004°30'0 0.0
2015-May-24 23:33N 51°55' E 004°30'0 0.0
2015-May-24 22:33N 51°55' E 004°30'0 0.0
2015-May-24 21:33N 51°55' E 004°30'0 0.0
2015-May-24 20:33N 51°55' E 004°30'0 0.0
2015-May-24 19:33N 51°55' E 004°30'0 0.0
2015-May-24 18:33N 51°55' E 004°30'0 0.0
2015-May-24 17:33N 51°55' E 004°30'0 0.0
2015-May-24 16:33N 51°55' E 004°30'0 0.0
2015-May-24 15:33N 51°55' E 004°30'0 0.0
2015-May-24 14:33N 51°55' E 004°30'0 0.0
2015-May-24 13:32N 51°55' E 004°30'0 0.0
2015-May-24 12:33N 51°55' E 004°30'0 0.0
2015-May-24 11:33N 51°55' E 004°30'0 0.0
2015-May-24 10:33N 51°55' E 004°30'0 0.0
2015-May-24 09:32N 51°55' E 004°30'0 0.0
2015-May-24 08:33N 51°55' E 004°30'0 0.0
2015-May-24 07:33N 51°55' E 004°30'0 0.0
2015-May-24 06:33N 51°55' E 004°30'0 0.0
2015-May-24 05:33N 51°55' E 004°30'0 0.0
2015-May-24 04:33N 51°55' E 004°30'0 0.0
2015-May-24 03:33N 51°55' E 004°30'0 0.0
2015-May-24 02:33N 51°55' E 004°30'0 0.0
2015-May-24 01:33N 51°55' E 004°30'0 0.0
2015-May-24 00:33N 51°55' E 004°30'0 0.0
2015-May-23 23:33N 51°55' E 004°30'0 0.0
2015-May-23 22:33N 51°55' E 004°30'0 0.0
2015-May-23 21:34N 51°55' E 004°30'0 0.0
2015-May-23 20:33N 51°55' E 004°30'0 0.0
2015-May-23 19:32N 51°55' E 004°30'0 0.0
2015-May-23 18:33N 51°55' E 004°30'0 0.0
2015-May-23 17:33N 51°55' E 004°30'0 0.0
2015-May-23 16:33N 51°55' E 004°30'0 0.0
2015-May-23 15:33N 51°55' E 004°30'0 0.0
2015-May-23 14:33N 51°55' E 004°30'0 0.0
2015-May-23 13:33N 51°55' E 004°30'0 0.0
2015-May-23 12:33N 51°55' E 004°30'0 0.0
2015-May-23 11:33N 51°55' E 004°30'0 0.0
2015-May-23 10:33N 51°55' E 004°30'0 0.0
2015-May-23 09:32N 51°55' E 004°30'0 0.0
2015-May-23 08:33N 51°55' E 004°30'0 0.0
2015-May-23 07:33N 51°55' E 004°30'0 0.0
2015-May-23 06:33N 51°55' E 004°30'0 0.0
2015-May-23 05:33N 51°55' E 004°30'0 0.0
2015-May-23 04:33N 51°55' E 004°30'0 0.0
2015-May-23 03:33N 51°55' E 004°30'0 0.0
2015-May-23 02:33N 51°55' E 004°30'0 0.0
2015-May-23 01:34N 51°55' E 004°30'0 0.0
2015-May-23 00:33N 51°55' E 004°30'0 0.0
2015-May-22 22:33N 51°55' E 004°30'0 0.0
2015-May-22 21:34N 51°55' E 004°30'0 0.0
2015-May-22 20:33N 51°55' E 004°30'0 0.0
2015-May-22 19:33N 51°55' E 004°30'0 0.0
2015-May-22 18:34N 51°55' E 004°30'0 0.0
2015-May-22 17:33N 51°55' E 004°30'0 0.0
2015-May-22 16:33N 51°55' E 004°30'0 0.0
2015-May-22 15:33N 51°55' E 004°30'0 0.0
2015-May-22 14:33N 51°55' E 004°30'0 0.0
2015-May-22 13:33N 51°55' E 004°30'0 0.0
2015-May-22 12:32N 51°55' E 004°30'0 0.0
2015-May-22 11:33N 51°55' E 004°30'0 0.0
2015-May-22 10:33N 51°55' E 004°30'0 0.0
2015-May-22 09:33N 51°55' E 004°30'0 0.0
2015-May-22 08:33N 51°55' E 004°30'0 0.0
2015-May-22 07:33N 51°55' E 004°30'0 0.0
2015-May-22 06:33N 51°55' E 004°30'0 0.0
2015-May-22 05:33N 51°55' E 004°30'0 0.0
2015-May-22 04:33N 51°55' E 004°30'0 0.0
2015-May-22 03:33N 51°55' E 004°30'0 0.0
2015-May-22 02:32N 51°55' E 004°30'0 0.0
2015-May-22 01:33N 51°55' E 004°30'0 0.0
2015-May-22 00:33N 51°55' E 004°30'0 0.0
2015-May-21 23:33N 51°55' E 004°30'0 0.0
2015-May-21 22:33N 51°55' E 004°30'0 0.0
2015-May-21 21:33N 51°55' E 004°30'0 0.0
2015-May-21 20:33N 51°55' E 004°30'0 0.0
2015-May-21 19:33N 51°55' E 004°30'0 0.0
2015-May-21 18:33N 51°55' E 004°30'0 0.0
2015-May-21 17:33N 51°55' E 004°30'0 0.0
2015-May-21 16:33N 51°55' E 004°30'0 0.0
2015-May-21 15:33N 51°55' E 004°30'0 0.0
2015-May-21 14:33N 51°55' E 004°30'0 0.0
2015-May-21 13:32N 51°55' E 004°30'0 0.0
2015-May-21 12:32N 51°55' E 004°30'0 0.0
2015-May-21 11:32N 51°55' E 004°30'0 0.0
2015-May-21 10:33N 51°55' E 004°30'0 0.0
2015-May-21 09:33N 51°55' E 004°30'0 0.0
2015-May-21 08:33N 51°55' E 004°30'0 0.0
2015-May-21 07:33N 51°55' E 004°30'0 0.0
2015-May-21 06:33N 51°55' E 004°30'0 0.0
2015-May-21 05:33N 51°55' E 004°30'0 0.0
2015-May-21 04:33N 51°55' E 004°30'0 0.0
2015-May-21 03:33N 51°55' E 004°30'0 0.0
2015-May-21 02:33N 51°55' E 004°30'0 0.0
2015-May-21 01:33N 51°55' E 004°30'0 0.0
2015-May-21 00:33N 51°55' E 004°30'0 0.0
2015-May-20 23:34N 51°55' E 004°30'0 0.0
2015-May-20 22:33N 51°55' E 004°30'0 0.0
2015-May-20 21:33N 51°55' E 004°30'0 0.0
2015-May-20 20:33N 51°55' E 004°30'0 0.0
2015-May-20 19:32N 51°55' E 004°30'0 0.0
2015-May-20 18:33N 51°55' E 004°30'0 0.0
2015-May-20 17:33N 51°55' E 004°30'0 0.0
2015-May-20 16:32N 51°55' E 004°30'0 0.0
2015-May-20 15:33N 51°55' E 004°30'0 0.0
2015-May-20 14:33N 51°55' E 004°30'0 0.0
2015-May-20 13:33N 51°55' E 004°30'0 0.0
2015-May-20 12:33N 51°55' E 004°30'0 0.0
2015-May-20 11:33N 51°55' E 004°30'0 0.0
2015-May-20 10:33N 51°55' E 004°30'0 0.0
2015-May-20 09:33N 51°55' E 004°30'0 0.0
2015-May-20 08:33N 51°55' E 004°30'0 0.0
2015-May-20 07:33N 51°55' E 004°30'0 0.0
2015-May-20 06:33N 51°55' E 004°30'0 0.0
2015-May-20 05:33N 51°55' E 004°30'0 0.0
2015-May-20 04:33N 51°55' E 004°30'0 0.0
2015-May-20 03:33N 51°55' E 004°30'0 0.0
2015-May-20 02:33N 51°55' E 004°30'0 0.0
2015-May-20 01:33N 51°55' E 004°30'0 0.0
2015-May-20 00:33N 51°55' E 004°30'0 0.0
2015-May-19 23:34N 51°55' E 004°30'0 0.0
2015-May-19 22:33N 51°55' E 004°30'0 0.0
2015-May-19 21:33N 51°55' E 004°30'0 0.0
2015-May-19 20:33N 51°55' E 004°30'0 0.0
2015-May-19 19:33N 51°55' E 004°30'0 0.0
2015-May-19 18:32N 51°55' E 004°30'0 0.0
2015-May-19 17:33N 51°55' E 004°30'0 0.0
2015-May-19 16:33N 51°55' E 004°30'0 0.0
2015-May-19 15:33N 51°55' E 004°30'0 0.0
2015-May-19 14:33N 51°55' E 004°30'0 0.0
2015-May-19 13:33N 51°55' E 004°30'0 0.0
2015-May-19 12:33N 51°55' E 004°30'0 0.0
2015-May-19 11:33N 51°55' E 004°30'0 0.0
2015-May-19 10:33N 51°55' E 004°30'0 0.0
2015-May-19 09:33N 51°55' E 004°30'0 0.0
2015-May-19 08:33N 51°55' E 004°30'0 0.0
2015-May-19 07:33N 51°55' E 004°30'0 0.0
2015-May-19 06:32N 51°55' E 004°30'0 0.0
2015-May-19 05:33N 51°55' E 004°30'0 0.0
2015-May-19 04:33N 51°55' E 004°30'0 0.0
2015-May-19 02:33N 51°55' E 004°30'0 0.0
2015-May-19 01:33N 51°55' E 004°30'0 0.0
2015-May-19 00:32N 51°55' E 004°30'0 0.0
2015-May-18 23:33N 51°55' E 004°30'0 0.0
2015-May-18 22:33N 51°55' E 004°30'0 0.0
2015-May-18 21:32N 51°55' E 004°30'0 0.0
2015-May-18 20:33N 51°55' E 004°30'0 0.0
2015-May-18 19:33N 51°55' E 004°30'0 0.0
2015-May-18 18:33N 51°55' E 004°30'0 0.0
2015-May-18 17:33N 51°55' E 004°30'0 0.0
2015-May-18 16:33N 51°55' E 004°30'0 0.0
2015-May-18 14:33N 51°55' E 004°30'0 0.0
2015-May-18 13:33N 51°55' E 004°30'0 0.0
2015-May-18 12:33N 51°55' E 004°30'0 0.0
2015-May-18 11:33N 51°55' E 004°30'0 0.0
2015-May-18 10:33N 51°55' E 004°30'0 0.0
2015-May-18 09:33N 51°55' E 004°30'0 0.0
2015-May-18 08:32N 51°55' E 004°30'0 0.0
2015-May-18 07:33N 51°55' E 004°30'0 0.0
2015-May-18 06:33N 51°55' E 004°30'0 0.0
2015-May-18 05:33N 51°55' E 004°30'0 0.0
2015-May-18 04:33N 51°55' E 004°30'0 0.0
2015-May-18 03:33N 51°55' E 004°30'0 0.0
2015-May-18 02:33N 51°55' E 004°30'0 0.0
2015-May-18 01:33N 51°55' E 004°30'0 0.0
2015-May-18 00:33N 51°55' E 004°30'0 0.0
2015-May-17 23:33N 51°55' E 004°30'0 0.0
2015-May-17 22:32N 51°55' E 004°30'  
Track history (hours):
 
Tides and Currents Weather Stations Pressure Air Temp Water Temp Dewpoint Dewpoint Depression Visibility Wind Speed Wind Dir Waves Ship Positions

Audrey

Last reported at 2015-May-27 21:33 UTC. Time now 2015-May-27 22:02 UTC.
Position N 51°16' E 004°23'.

Length 85 m; draft 2.5 m.

Type: Other ship. MMSI: 244660106.

Date/timePositionNaut miles runAvg speedWind from/ knotsBaromVisibWave heightAir tempDewpointWater temp
2015-May-27 21:33N 51°16' E 004°23'0 0.0
2015-May-27 20:33N 51°16' E 004°23'0 0.0
2015-May-27 19:33N 51°16' E 004°23'0 0.0
2015-May-27 18:33N 51°16' E 004°23'1 1.4
2015-May-27 17:33N 51°15' E 004°21'2 2.1
2015-May-27 16:33N 51°16' E 004°18'1 1.1
2015-May-27 15:33N 51°16' E 004°16'2 1.6
2015-May-27 14:33N 51°15' E 004°14'0 0.0
2015-May-27 13:33N 51°15' E 004°14'0 0.0
2015-May-27 12:33N 51°15' E 004°14'0 0.0
2015-May-27 11:33N 51°15' E 004°14'0 0.1
2015-May-27 10:33N 51°15' E 004°14'0 0.1
2015-May-27 09:33N 51°15' E 004°14'0 0.0
2015-May-27 08:33N 51°15' E 004°14'0 0.1
2015-May-27 07:33N 51°15' E 004°14'2 1.6
2015-May-27 06:33N 51°16' E 004°16'0 0.1
2015-May-27 05:33N 51°16' E 004°16'0 0.0
2015-May-27 04:33N 51°16' E 004°16'0 0.0
2015-May-27 03:33N 51°16' E 004°16'0 0.0
2015-May-27 02:33N 51°16' E 004°16'0 0.0
2015-May-27 01:33N 51°16' E 004°16'0 0.0
2015-May-27 00:33N 51°16' E 004°16'0 0.0
2015-May-26 23:33N 51°16' E 004°16'0 0.0
2015-May-26 22:33N 51°16' E 004°16'0 0.0
2015-May-26 21:33N 51°16' E 004°16'0 0.0
2015-May-26 20:33N 51°16' E 004°16'0 0.0
2015-May-26 19:33N 51°16' E 004°16'0 0.0
2015-May-26 18:33N 51°16' E 004°16'0 0.0
2015-May-26 17:33N 51°16' E 004°16'0 0.4
2015-May-26 16:33N 51°16' E 004°17'0 0.5
2015-May-26 15:33N 51°16' E 004°17'6 6.2
2015-May-26 14:33N 51°22' E 004°13'17 3.8
2015-May-26 10:06N 51°38' E 004°14'610.7
2015-May-26 09:30N 51°41' E 004°23'4 3.5
2015-May-26 08:29N 51°42' E 004°29'8 8.1
2015-May-26 07:33N 51°47' E 004°38'7 7.1
2015-May-26 06:33N 51°54' E 004°35'3 3.2
2015-May-26 05:31N 51°55' E 004°30'0 0.0
2015-May-26 04:33N 51°55' E 004°30'0 0.0
2015-May-26 03:33N 51°55' E 004°30'0 0.0
2015-May-26 02:33N 51°55' E 004°30'0 0.0
2015-May-26 01:33N 51°55' E 004°30'0 0.0
2015-May-26 00:33N 51°55' E 004°30'0 0.0
2015-May-25 23:34N 51°55' E 004°30'0 0.0
2015-May-25 22:33N 51°55' E 004°30'0 0.0
2015-May-25 21:33N 51°55' E 004°30'0 0.0
2015-May-25 20:33N 51°55' E 004°30'0 0.0
2015-May-25 19:33N 51°55' E 004°30'0 0.0
2015-May-25 18:33N 51°55' E 004°30'0 0.0
2015-May-25 17:33N 51°55' E 004°30'0 0.0
2015-May-25 16:33N 51°55' E 004°30'0 0.0
2015-May-25 15:33N 51°55' E 004°30'0 0.0
2015-May-25 14:33N 51°55' E 004°30'0 0.0
2015-May-25 13:33N 51°55' E 004°30'0 0.0
2015-May-25 12:33N 51°55' E 004°30'0 0.0
2015-May-25 11:33N 51°55' E 004°30'0 0.0
2015-May-25 10:33N 51°55' E 004°30'0 0.0
2015-May-25 09:33N 51°55' E 004°30'0 0.0
2015-May-25 08:33N 51°55' E 004°30'0 0.0
2015-May-25 07:33N 51°55' E 004°30'0 0.0
2015-May-25 06:33N 51°55' E 004°30'0 0.0
2015-May-25 05:33N 51°55' E 004°30'0 0.0
2015-May-25 04:33N 51°55' E 004°30'0 0.0
2015-May-25 03:33N 51°55' E 004°30'0 0.0
2015-May-25 02:33N 51°55' E 004°30'0 0.0
2015-May-25 01:33N 51°55' E 004°30'0 0.0
2015-May-25 00:33N 51°55' E 004°30'0 0.0
2015-May-24 23:33N 51°55' E 004°30'0 0.0
2015-May-24 22:33N 51°55' E 004°30'0 0.0
2015-May-24 21:33N 51°55' E 004°30'0 0.0
2015-May-24 20:33N 51°55' E 004°30'0 0.0
2015-May-24 19:33N 51°55' E 004°30'0 0.0
2015-May-24 18:33N 51°55' E 004°30'0 0.0
2015-May-24 17:33N 51°55' E 004°30'0 0.0
2015-May-24 16:33N 51°55' E 004°30'0 0.0
2015-May-24 15:33N 51°55' E 004°30'0 0.0
2015-May-24 14:33N 51°55' E 004°30'0 0.0
2015-May-24 13:32N 51°55' E 004°30'0 0.0
2015-May-24 12:33N 51°55' E 004°30'0 0.0
2015-May-24 11:33N 51°55' E 004°30'0 0.0
2015-May-24 10:33N 51°55' E 004°30'0 0.0
2015-May-24 09:32N 51°55' E 004°30'0 0.0
2015-May-24 08:33N 51°55' E 004°30'0 0.0
2015-May-24 07:33N 51°55' E 004°30'0 0.0
2015-May-24 06:33N 51°55' E 004°30'0 0.0
2015-May-24 05:33N 51°55' E 004°30'0 0.0
2015-May-24 04:33N 51°55' E 004°30'0 0.0
2015-May-24 03:33N 51°55' E 004°30'0 0.0
2015-May-24 02:33N 51°55' E 004°30'0 0.0
2015-May-24 01:33N 51°55' E 004°30'0 0.0
2015-May-24 00:33N 51°55' E 004°30'0 0.0
2015-May-23 23:33N 51°55' E 004°30'0 0.0
2015-May-23 22:33N 51°55' E 004°30'0 0.0
2015-May-23 21:34N 51°55' E 004°30'0 0.0
2015-May-23 20:33N 51°55' E 004°30'0 0.0
2015-May-23 19:32N 51°55' E 004°30'0 0.0
2015-May-23 18:33N 51°55' E 004°30'0 0.0
2015-May-23 17:33N 51°55' E 004°30'0 0.0
2015-May-23 16:33N 51°55' E 004°30'0 0.0
2015-May-23 15:33N 51°55' E 004°30'0 0.0
2015-May-23 14:33N 51°55' E 004°30'0 0.0
2015-May-23 13:33N 51°55' E 004°30'0 0.0
2015-May-23 12:33N 51°55' E 004°30'0 0.0
2015-May-23 11:33N 51°55' E 004°30'0 0.0
2015-May-23 10:33N 51°55' E 004°30'0 0.0
2015-May-23 09:32N 51°55' E 004°30'0 0.0
2015-May-23 08:33N 51°55' E 004°30'0 0.0
2015-May-23 07:33N 51°55' E 004°30'0 0.0
2015-May-23 06:33N 51°55' E 004°30'0 0.0
2015-May-23 05:33N 51°55' E 004°30'0 0.0
2015-May-23 04:33N 51°55' E 004°30'0 0.0
2015-May-23 03:33N 51°55' E 004°30'0 0.0
2015-May-23 02:33N 51°55' E 004°30'0 0.0
2015-May-23 01:34N 51°55' E 004°30'0 0.0
2015-May-23 00:33N 51°55' E 004°30'0 0.0
2015-May-22 22:33N 51°55' E 004°30'0 0.0
2015-May-22 21:34N 51°55' E 004°30'0 0.0
2015-May-22 20:33N 51°55' E 004°30'0 0.0
2015-May-22 19:33N 51°55' E 004°30'0 0.0
2015-May-22 18:34N 51°55' E 004°30'0 0.0
2015-May-22 17:33N 51°55' E 004°30'0 0.0
2015-May-22 16:33N 51°55' E 004°30'0 0.0
2015-May-22 15:33N 51°55' E 004°30'0 0.0
2015-May-22 14:33N 51°55' E 004°30'0 0.0
2015-May-22 13:33N 51°55' E 004°30'0 0.0
2015-May-22 12:32N 51°55' E 004°30'0 0.0
2015-May-22 11:33N 51°55' E 004°30'0 0.0
2015-May-22 10:33N 51°55' E 004°30'0 0.0
2015-May-22 09:33N 51°55' E 004°30'0 0.0
2015-May-22 08:33N 51°55' E 004°30'0 0.0
2015-May-22 07:33N 51°55' E 004°30'0 0.0
2015-May-22 06:33N 51°55' E 004°30'0 0.0
2015-May-22 05:33N 51°55' E 004°30'0 0.0
2015-May-22 04:33N 51°55' E 004°30'0 0.0
2015-May-22 03:33N 51°55' E 004°30'0 0.0
2015-May-22 02:32N 51°55' E 004°30'0 0.0
2015-May-22 01:33N 51°55' E 004°30'0 0.0
2015-May-22 00:33N 51°55' E 004°30'0 0.0
2015-May-21 23:33N 51°55' E 004°30'0 0.0
2015-May-21 22:33N 51°55' E 004°30'0 0.0
2015-May-21 21:33N 51°55' E 004°30'0 0.0
2015-May-21 20:33N 51°55' E 004°30'0 0.0
2015-May-21 19:33N 51°55' E 004°30'0 0.0
2015-May-21 18:33N 51°55' E 004°30'0 0.0
2015-May-21 17:33N 51°55' E 004°30'0 0.0
2015-May-21 16:33N 51°55' E 004°30'0 0.0
2015-May-21 15:33N 51°55' E 004°30'0 0.0
2015-May-21 14:33N 51°55' E 004°30'0 0.0
2015-May-21 13:32N 51°55' E 004°30'0 0.0
2015-May-21 12:32N 51°55' E 004°30'0 0.0
2015-May-21 11:32N 51°55' E 004°30'0 0.0
2015-May-21 10:33N 51°55' E 004°30'0 0.0
2015-May-21 09:33N 51°55' E 004°30'0 0.0
2015-May-21 08:33N 51°55' E 004°30'0 0.0
2015-May-21 07:33N 51°55' E 004°30'0 0.0
2015-May-21 06:33N 51°55' E 004°30'0 0.0
2015-May-21 05:33N 51°55' E 004°30'0 0.0
2015-May-21 04:33N 51°55' E 004°30'0 0.0
2015-May-21 03:33N 51°55' E 004°30'0 0.0
2015-May-21 02:33N 51°55' E 004°30'0 0.0
2015-May-21 01:33N 51°55' E 004°30'0 0.0
2015-May-21 00:33N 51°55' E 004°30'0 0.0
2015-May-20 23:34N 51°55' E 004°30'0 0.0
2015-May-20 22:33N 51°55' E 004°30'0 0.0
2015-May-20 21:33N 51°55' E 004°30'0 0.0
2015-May-20 20:33N 51°55' E 004°30'0 0.0
2015-May-20 19:32N 51°55' E 004°30'0 0.0
2015-May-20 18:33N 51°55' E 004°30'0 0.0
2015-May-20 17:33N 51°55' E 004°30'0 0.0
2015-May-20 16:32N 51°55' E 004°30'0 0.0
2015-May-20 15:33N 51°55' E 004°30'0 0.0
2015-May-20 14:33N 51°55' E 004°30'0 0.0
2015-May-20 13:33N 51°55' E 004°30'0 0.0
2015-May-20 12:33N 51°55' E 004°30'0 0.0
2015-May-20 11:33N 51°55' E 004°30'0 0.0
2015-May-20 10:33N 51°55' E 004°30'0 0.0
2015-May-20 09:33N 51°55' E 004°30'0 0.0
2015-May-20 08:33N 51°55' E 004°30'0 0.0
2015-May-20 07:33N 51°55' E 004°30'0 0.0
2015-May-20 06:33N 51°55' E 004°30'0 0.0
2015-May-20 05:33N 51°55' E 004°30'0 0.0
2015-May-20 04:33N 51°55' E 004°30'0 0.0
2015-May-20 03:33N 51°55' E 004°30'0 0.0
2015-May-20 02:33N 51°55' E 004°30'0 0.0
2015-May-20 01:33N 51°55' E 004°30'0 0.0
2015-May-20 00:33N 51°55' E 004°30'0 0.0
2015-May-19 23:34N 51°55' E 004°30'0 0.0
2015-May-19 22:33N 51°55' E 004°30'0 0.0
2015-May-19 21:33N 51°55' E 004°30'0 0.0
2015-May-19 20:33N 51°55' E 004°30'0 0.0
2015-May-19 19:33N 51°55' E 004°30'0 0.0
2015-May-19 18:32N 51°55' E 004°30'0 0.0
2015-May-19 17:33N 51°55' E 004°30'0 0.0
2015-May-19 16:33N 51°55' E 004°30'0 0.0
2015-May-19 15:33N 51°55' E 004°30'0 0.0
2015-May-19 14:33N 51°55' E 004°30'0 0.0
2015-May-19 13:33N 51°55' E 004°30'0 0.0
2015-May-19 12:33N 51°55' E 004°30'0 0.0
2015-May-19 11:33N 51°55' E 004°30'0 0.0
2015-May-19 10:33N 51°55' E 004°30'0 0.0
2015-May-19 09:33N 51°55' E 004°30'0 0.0
2015-May-19 08:33N 51°55' E 004°30'0 0.0
2015-May-19 07:33N 51°55' E 004°30'0 0.0
2015-May-19 06:32N 51°55' E 004°30'0 0.0
2015-May-19 05:33N 51°55' E 004°30'0 0.0
2015-May-19 04:33N 51°55' E 004°30'0 0.0
2015-May-19 02:33N 51°55' E 004°30'0 0.0
2015-May-19 01:33N 51°55' E 004°30'0 0.0
2015-May-19 00:32N 51°55' E 004°30'0 0.0
2015-May-18 23:33N 51°55' E 004°30'0 0.0
2015-May-18 22:33N 51°55' E 004°30'0 0.0
2015-May-18 21:32N 51°55' E 004°30'0 0.0
2015-May-18 20:33N 51°55' E 004°30'0 0.0
2015-May-18 19:33N 51°55' E 004°30'0 0.0
2015-May-18 18:33N 51°55' E 004°30'0 0.0
2015-May-18 17:33N 51°55' E 004°30'0 0.0
2015-May-18 16:33N 51°55' E 004°30'0 0.0
2015-May-18 14:33N 51°55' E 004°30'0 0.0
2015-May-18 13:33N 51°55' E 004°30'0 0.0
2015-May-18 12:33N 51°55' E 004°30'0 0.0
2015-May-18 11:33N 51°55' E 004°30'0 0.0
2015-May-18 10:33N 51°55' E 004°30'0 0.0
2015-May-18 09:33N 51°55' E 004°30'0 0.0
2015-May-18 08:32N 51°55' E 004°30'0 0.0
2015-May-18 07:33N 51°55' E 004°30'0 0.0
2015-May-18 06:33N 51°55' E 004°30'0 0.0
2015-May-18 05:33N 51°55' E 004°30'0 0.0
2015-May-18 04:33N 51°55' E 004°30'0 0.0
2015-May-18 03:33N 51°55' E 004°30'0 0.0
2015-May-18 02:33N 51°55' E 004°30'0 0.0
2015-May-18 01:33N 51°55' E 004°30'0 0.0
2015-May-18 00:33N 51°55' E 004°30'0 0.0
2015-May-17 23:33N 51°55' E 004°30'0 0.0
2015-May-17 22:32N 51°55' E 004°30'  

Dump ship's entire track history